sensor_id;sensor_type;location;lat;lon;timestamp;P1;durP1;ratioP1;P2;durP2;ratioP2
44110;SDS011;29774;52.664;5.074;2023-04-01T00:00:09;9.52;;;4.97;;
44110;SDS011;29774;52.664;5.074;2023-04-01T00:02:35;8.95;;;4.70;;
44110;SDS011;29774;52.664;5.074;2023-04-01T00:05:00;12.10;;;5.68;;
44110;SDS011;29774;52.664;5.074;2023-04-01T00:07:26;12.32;;;5.47;;
44110;SDS011;29774;52.664;5.074;2023-04-01T00:09:52;13.50;;;5.90;;
44110;SDS011;29774;52.664;5.074;2023-04-01T00:12:17;9.35;;;5.47;;
44110;SDS011;29774;52.664;5.074;2023-04-01T00:14:43;10.40;;;4.82;;
44110;SDS011;29774;52.664;5.074;2023-04-01T00:17:09;9.45;;;4.75;;
44110;SDS011;29774;52.664;5.074;2023-04-01T00:19:35;10.38;;;5.38;;
44110;SDS011;29774;52.664;5.074;2023-04-01T00:22:02;9.35;;;5.20;;
44110;SDS011;29774;52.664;5.074;2023-04-01T00:24:27;10.48;;;5.10;;
44110;SDS011;29774;52.664;5.074;2023-04-01T00:26:53;10.70;;;5.40;;
44110;SDS011;29774;52.664;5.074;2023-04-01T00:29:19;12.43;;;5.82;;
44110;SDS011;29774;52.664;5.074;2023-04-01T00:31:45;11.00;;;5.60;;
44110;SDS011;29774;52.664;5.074;2023-04-01T00:34:12;7.55;;;4.78;;
44110;SDS011;29774;52.664;5.074;2023-04-01T00:36:37;10.50;;;4.93;;
44110;SDS011;29774;52.664;5.074;2023-04-01T00:39:03;12.85;;;5.70;;
44110;SDS011;29774;52.664;5.074;2023-04-01T00:41:29;12.65;;;6.10;;
44110;SDS011;29774;52.664;5.074;2023-04-01T00:44:11;11.43;;;5.63;;
44110;SDS011;29774;52.664;5.074;2023-04-01T00:46:44;13.07;;;5.70;;
44110;SDS011;29774;52.664;5.074;2023-04-01T00:49:10;9.05;;;4.93;;
44110;SDS011;29774;52.664;5.074;2023-04-01T00:51:35;11.40;;;5.57;;
44110;SDS011;29774;52.664;5.074;2023-04-01T00:54:03;9.77;;;5.72;;
44110;SDS011;29774;52.664;5.074;2023-04-01T00:56:31;10.40;;;5.82;;
44110;SDS011;29774;52.664;5.074;2023-04-01T00:59:02;11.20;;;6.45;;
44110;SDS011;29774;52.664;5.074;2023-04-01T01:01:36;9.43;;;6.05;;
44110;SDS011;29774;52.664;5.074;2023-04-01T01:04:02;9.63;;;6.13;;
44110;SDS011;29774;52.664;5.074;2023-04-01T01:17:25;11.48;;;5.57;;
44110;SDS011;29774;52.664;5.074;2023-04-01T01:20:05;11.43;;;5.40;;
44110;SDS011;29774;52.664;5.074;2023-04-01T01:23:11;10.60;;;5.75;;
44110;SDS011;29774;52.664;5.074;2023-04-01T01:25:41;13.10;;;6.57;;
44110;SDS011;29774;52.664;5.074;2023-04-01T01:31:12;11.40;;;6.03;;
44110;SDS011;29774;52.664;5.074;2023-04-01T01:36:53;9.07;;;4.90;;
44110;SDS011;29774;52.664;5.074;2023-04-01T01:39:24;11.38;;;5.93;;
44110;SDS011;29774;52.664;5.074;2023-04-01T01:41:55;13.65;;;6.60;;
44110;SDS011;29774;52.664;5.074;2023-04-01T01:44:22;9.75;;;5.97;;
44110;SDS011;29774;52.664;5.074;2023-04-01T01:46:50;7.10;;;5.63;;
44110;SDS011;29774;52.664;5.074;2023-04-01T01:49:16;6.53;;;4.80;;
44110;SDS011;29774;52.664;5.074;2023-04-01T01:51:43;6.00;;;4.85;;
44110;SDS011;29774;52.664;5.074;2023-04-01T01:54:16;6.20;;;4.40;;
44110;SDS011;29774;52.664;5.074;2023-04-01T01:56:44;3.97;;;3.55;;
44110;SDS011;29774;52.664;5.074;2023-04-01T01:59:12;4.68;;;3.88;;
44110;SDS011;29774;52.664;5.074;2023-04-01T02:01:48;5.93;;;3.70;;
44110;SDS011;29774;52.664;5.074;2023-04-01T02:04:15;4.13;;;3.28;;
44110;SDS011;29774;52.664;5.074;2023-04-01T02:06:52;4.45;;;3.60;;
44110;SDS011;29774;52.664;5.074;2023-04-01T02:09:22;3.63;;;3.28;;
44110;SDS011;29774;52.664;5.074;2023-04-01T02:11:59;4.47;;;4.07;;
44110;SDS011;29774;52.664;5.074;2023-04-01T02:17:10;5.38;;;4.40;;
44110;SDS011;29774;52.664;5.074;2023-04-01T02:19:40;4.80;;;4.22;;
44110;SDS011;29774;52.664;5.074;2023-04-01T02:22:13;3.67;;;3.38;;
44110;SDS011;29774;52.664;5.074;2023-04-01T02:24:43;3.75;;;3.45;;
44110;SDS011;29774;52.664;5.074;2023-04-01T02:27:10;4.22;;;3.88;;
44110;SDS011;29774;52.664;5.074;2023-04-01T02:29:36;5.28;;;3.70;;
44110;SDS011;29774;52.664;5.074;2023-04-01T02:32:02;4.22;;;3.83;;
44110;SDS011;29774;52.664;5.074;2023-04-01T02:34:29;3.58;;;3.28;;
44110;SDS011;29774;52.664;5.074;2023-04-01T02:36:55;2.53;;;2.33;;
44110;SDS011;29774;52.664;5.074;2023-04-01T02:39:22;2.08;;;1.88;;
44110;SDS011;29774;52.664;5.074;2023-04-01T02:41:48;2.03;;;1.20;;
44110;SDS011;29774;52.664;5.074;2023-04-01T02:44:14;1.48;;;0.90;;
44110;SDS011;29774;52.664;5.074;2023-04-01T02:46:40;2.15;;;1.70;;
44110;SDS011;29774;52.664;5.074;2023-04-01T02:49:06;2.47;;;2.25;;
44110;SDS011;29774;52.664;5.074;2023-04-01T02:51:32;2.65;;;2.45;;
44110;SDS011;29774;52.664;5.074;2023-04-01T02:53:58;2.10;;;1.92;;
44110;SDS011;29774;52.664;5.074;2023-04-01T02:56:24;3.05;;;2.78;;
44110;SDS011;29774;52.664;5.074;2023-04-01T02:58:51;4.32;;;3.92;;
44110;SDS011;29774;52.664;5.074;2023-04-01T03:01:16;4.53;;;4.13;;
44110;SDS011;29774;52.664;5.074;2023-04-01T03:03:42;4.72;;;4.32;;
44110;SDS011;29774;52.664;5.074;2023-04-01T03:06:08;4.18;;;3.80;;
44110;SDS011;29774;52.664;5.074;2023-04-01T03:08:36;4.45;;;3.95;;
44110;SDS011;29774;52.664;5.074;2023-04-01T03:11:01;5.38;;;4.32;;
44110;SDS011;29774;52.664;5.074;2023-04-01T03:13:27;3.50;;;3.13;;
44110;SDS011;29774;52.664;5.074;2023-04-01T03:15:53;5.28;;;4.15;;
44110;SDS011;29774;52.664;5.074;2023-04-01T03:18:18;3.45;;;2.70;;
44110;SDS011;29774;52.664;5.074;2023-04-01T03:20:44;4.53;;;3.70;;
44110;SDS011;29774;52.664;5.074;2023-04-01T03:23:10;4.10;;;3.72;;
44110;SDS011;29774;52.664;5.074;2023-04-01T03:25:36;4.00;;;3.60;;
44110;SDS011;29774;52.664;5.074;2023-04-01T03:28:04;4.38;;;3.97;;
44110;SDS011;29774;52.664;5.074;2023-04-01T03:30:30;4.68;;;4.07;;
44110;SDS011;29774;52.664;5.074;2023-04-01T03:32:56;5.10;;;4.63;;
44110;SDS011;29774;52.664;5.074;2023-04-01T03:35:22;4.22;;;3.75;;
44110;SDS011;29774;52.664;5.074;2023-04-01T03:37:50;5.18;;;4.68;;
44110;SDS011;29774;52.664;5.074;2023-04-01T03:40:16;4.95;;;4.45;;
44110;SDS011;29774;52.664;5.074;2023-04-01T03:42:41;4.72;;;3.78;;
44110;SDS011;29774;52.664;5.074;2023-04-01T03:45:07;6.38;;;4.70;;
44110;SDS011;29774;52.664;5.074;2023-04-01T03:47:34;5.18;;;4.57;;
44110;SDS011;29774;52.664;5.074;2023-04-01T03:50:00;4.95;;;3.78;;
44110;SDS011;29774;52.664;5.074;2023-04-01T03:52:25;4.97;;;4.47;;
44110;SDS011;29774;52.664;5.074;2023-04-01T03:54:51;5.65;;;5.07;;
44110;SDS011;29774;52.664;5.074;2023-04-01T03:57:16;3.88;;;3.35;;
44110;SDS011;29774;52.664;5.074;2023-04-01T03:59:42;5.15;;;4.55;;
44110;SDS011;29774;52.664;5.074;2023-04-01T04:02:07;5.53;;;4.85;;
44110;SDS011;29774;52.664;5.074;2023-04-01T04:04:33;5.10;;;4.55;;
44110;SDS011;29774;52.664;5.074;2023-04-01T04:06:59;5.00;;;4.40;;
44110;SDS011;29774;52.664;5.074;2023-04-01T04:09:24;4.88;;;4.38;;
44110;SDS011;29774;52.664;5.074;2023-04-01T04:11:50;6.47;;;4.90;;
44110;SDS011;29774;52.664;5.074;2023-04-01T04:14:16;5.03;;;4.47;;
44110;SDS011;29774;52.664;5.074;2023-04-01T04:16:41;4.03;;;3.63;;
44110;SDS011;29774;52.664;5.074;2023-04-01T04:19:07;5.43;;;4.43;;
44110;SDS011;29774;52.664;5.074;2023-04-01T04:21:33;5.43;;;4.60;;
44110;SDS011;29774;52.664;5.074;2023-04-01T04:24:02;5.10;;;4.55;;
44110;SDS011;29774;52.664;5.074;2023-04-01T04:26:27;5.53;;;5.03;;
44110;SDS011;29774;52.664;5.074;2023-04-01T04:28:53;5.30;;;4.43;;
44110;SDS011;29774;52.664;5.074;2023-04-01T04:31:21;6.93;;;4.93;;
44110;SDS011;29774;52.664;5.074;2023-04-01T04:33:47;5.15;;;4.65;;
44110;SDS011;29774;52.664;5.074;2023-04-01T04:36:13;5.97;;;5.38;;
44110;SDS011;29774;52.664;5.074;2023-04-01T04:38:39;6.15;;;4.82;;
44110;SDS011;29774;52.664;5.074;2023-04-01T04:41:12;4.10;;;3.60;;
44110;SDS011;29774;52.664;5.074;2023-04-01T04:43:47;4.35;;;3.95;;
44110;SDS011;29774;52.664;5.074;2023-04-01T04:46:17;4.32;;;3.67;;
44110;SDS011;29774;52.664;5.074;2023-04-01T04:48:43;6.00;;;5.40;;
44110;SDS011;29774;52.664;5.074;2023-04-01T04:51:12;6.03;;;5.13;;
44110;SDS011;29774;52.664;5.074;2023-04-01T04:53:39;5.20;;;4.68;;
44110;SDS011;29774;52.664;5.074;2023-04-01T04:56:05;8.25;;;5.88;;
44110;SDS011;29774;52.664;5.074;2023-04-01T04:58:31;7.43;;;5.75;;
44110;SDS011;29774;52.664;5.074;2023-04-01T05:00:56;7.15;;;5.85;;
44110;SDS011;29774;52.664;5.074;2023-04-01T05:03:22;5.80;;;4.68;;
44110;SDS011;29774;52.664;5.074;2023-04-01T05:05:51;6.93;;;5.25;;
44110;SDS011;29774;52.664;5.074;2023-04-01T05:08:18;4.95;;;4.45;;
44110;SDS011;29774;52.664;5.074;2023-04-01T05:10:45;6.45;;;5.65;;
44110;SDS011;29774;52.664;5.074;2023-04-01T05:13:10;6.90;;;5.10;;
44110;SDS011;29774;52.664;5.074;2023-04-01T05:15:36;7.93;;;6.20;;
44110;SDS011;29774;52.664;5.074;2023-04-01T05:18:02;9.00;;;6.03;;
44110;SDS011;29774;52.664;5.074;2023-04-01T05:20:28;8.20;;;6.10;;
44110;SDS011;29774;52.664;5.074;2023-04-01T05:22:57;7.30;;;5.65;;
44110;SDS011;29774;52.664;5.074;2023-04-01T05:25:24;7.15;;;5.95;;
44110;SDS011;29774;52.664;5.074;2023-04-01T05:27:50;6.85;;;5.65;;
44110;SDS011;29774;52.664;5.074;2023-04-01T05:30:16;7.00;;;5.10;;
44110;SDS011;29774;52.664;5.074;2023-04-01T05:32:41;7.13;;;6.40;;
44110;SDS011;29774;52.664;5.074;2023-04-01T05:35:08;7.32;;;5.20;;
44110;SDS011;29774;52.664;5.074;2023-04-01T05:37:35;8.05;;;5.57;;
44110;SDS011;29774;52.664;5.074;2023-04-01T05:40:01;4.80;;;4.25;;
44110;SDS011;29774;52.664;5.074;2023-04-01T05:42:28;6.90;;;5.20;;
44110;SDS011;29774;52.664;5.074;2023-04-01T05:44:53;9.13;;;6.63;;
44110;SDS011;29774;52.664;5.074;2023-04-01T05:47:20;7.20;;;6.32;;
44110;SDS011;29774;52.664;5.074;2023-04-01T05:49:46;8.13;;;7.15;;
44110;SDS011;29774;52.664;5.074;2023-04-01T05:52:12;11.50;;;6.20;;
44110;SDS011;29774;52.664;5.074;2023-04-01T05:54:38;6.88;;;5.60;;
44110;SDS011;29774;52.664;5.074;2023-04-01T05:57:04;8.75;;;5.72;;
44110;SDS011;29774;52.664;5.074;2023-04-01T05:59:29;6.00;;;4.85;;
44110;SDS011;29774;52.664;5.074;2023-04-01T06:01:56;7.22;;;6.05;;
44110;SDS011;29774;52.664;5.074;2023-04-01T06:04:22;6.82;;;5.78;;
44110;SDS011;29774;52.664;5.074;2023-04-01T06:06:49;7.90;;;5.85;;
44110;SDS011;29774;52.664;5.074;2023-04-01T06:09:17;9.23;;;6.35;;
44110;SDS011;29774;52.664;5.074;2023-04-01T06:17:52;7.95;;;6.18;;
44110;SDS011;29774;52.664;5.074;2023-04-01T06:26:26;9.25;;;6.20;;
44110;SDS011;29774;52.664;5.074;2023-04-01T06:29:05;7.30;;;5.57;;
44110;SDS011;29774;52.664;5.074;2023-04-01T06:34:20;7.05;;;5.32;;
44110;SDS011;29774;52.664;5.074;2023-04-01T06:37:13;10.98;;;7.05;;
44110;SDS011;29774;52.664;5.074;2023-04-01T06:42:31;7.55;;;5.53;;
44110;SDS011;29774;52.664;5.074;2023-04-01T06:56:09;9.30;;;6.40;;
44110;SDS011;29774;52.664;5.074;2023-04-01T07:01:14;8.20;;;6.05;;
44110;SDS011;29774;52.664;5.074;2023-04-01T07:04:10;7.38;;;5.80;;
44110;SDS011;29774;52.664;5.074;2023-04-01T07:06:38;10.85;;;7.35;;
44110;SDS011;29774;52.664;5.074;2023-04-01T07:09:16;9.05;;;6.60;;
44110;SDS011;29774;52.664;5.074;2023-04-01T07:11:45;9.70;;;6.97;;
44110;SDS011;29774;52.664;5.074;2023-04-01T07:19:54;9.30;;;6.53;;
44110;SDS011;29774;52.664;5.074;2023-04-01T07:22:36;9.88;;;5.70;;
44110;SDS011;29774;52.664;5.074;2023-04-01T07:27:53;6.43;;;4.75;;
44110;SDS011;29774;52.664;5.074;2023-04-01T07:30:40;6.85;;;4.78;;
44110;SDS011;29774;52.664;5.074;2023-04-01T07:33:15;5.60;;;4.05;;
44110;SDS011;29774;52.664;5.074;2023-04-01T07:35:47;5.43;;;4.70;;
44110;SDS011;29774;52.664;5.074;2023-04-01T07:38:36;8.60;;;5.53;;
44110;SDS011;29774;52.664;5.074;2023-04-01T07:44:27;8.65;;;6.00;;
44110;SDS011;29774;52.664;5.074;2023-04-01T07:50:05;14.40;;;7.00;;
44110;SDS011;29774;52.664;5.074;2023-04-01T08:00:51;14.23;;;8.98;;
44110;SDS011;29774;52.664;5.074;2023-04-01T08:03:40;10.30;;;7.38;;
44110;SDS011;29774;52.664;5.074;2023-04-01T08:06:14;13.30;;;8.23;;
44110;SDS011;29774;52.664;5.074;2023-04-01T08:09:04;10.55;;;6.97;;
44110;SDS011;29774;52.664;5.074;2023-04-01T08:11:46;11.07;;;7.07;;
44110;SDS011;29774;52.664;5.074;2023-04-01T08:20:05;12.57;;;8.02;;
44110;SDS011;29774;52.664;5.074;2023-04-01T08:22:42;8.68;;;5.78;;
44110;SDS011;29774;52.664;5.074;2023-04-01T08:25:13;12.10;;;7.45;;
44110;SDS011;29774;52.664;5.074;2023-04-01T08:27:45;8.45;;;6.18;;
44110;SDS011;29774;52.664;5.074;2023-04-01T08:32:58;8.93;;;6.63;;
44110;SDS011;29774;52.664;5.074;2023-04-01T08:38:33;10.50;;;7.70;;
44110;SDS011;29774;52.664;5.074;2023-04-01T08:55:56;10.18;;;6.50;;
44110;SDS011;29774;52.664;5.074;2023-04-01T09:18:59;11.38;;;7.50;;
44110;SDS011;29774;52.664;5.074;2023-04-01T09:40:18;9.65;;;7.15;;
44110;SDS011;29774;52.664;5.074;2023-04-01T09:51:44;8.35;;;6.30;;
44110;SDS011;29774;52.664;5.074;2023-04-01T09:54:40;11.00;;;7.75;;
44110;SDS011;29774;52.664;5.074;2023-04-01T10:09:28;8.80;;;4.93;;
44110;SDS011;29774;52.664;5.074;2023-04-01T10:20:40;11.18;;;7.82;;
44110;SDS011;29774;52.664;5.074;2023-04-01T10:32:16;11.60;;;7.50;;
44110;SDS011;29774;52.664;5.074;2023-04-01T10:51:21;10.40;;;7.70;;
44110;SDS011;29774;52.664;5.074;2023-04-01T10:54:17;8.40;;;6.30;;
44110;SDS011;29774;52.664;5.074;2023-04-01T10:57:19;9.35;;;6.13;;
44110;SDS011;29774;52.664;5.074;2023-04-01T11:22:16;8.43;;;4.28;;
44110;SDS011;29774;52.664;5.074;2023-04-01T11:27:56;6.00;;;4.00;;
44110;SDS011;29774;52.664;5.074;2023-04-01T11:30:57;5.05;;;4.18;;
44110;SDS011;29774;52.664;5.074;2023-04-01T11:33:48;3.83;;;3.10;;
44110;SDS011;29774;52.664;5.074;2023-04-01T11:39:33;4.72;;;3.53;;
44110;SDS011;29774;52.664;5.074;2023-04-01T11:42:20;6.65;;;3.55;;
44110;SDS011;29774;52.664;5.074;2023-04-01T11:53:41;3.80;;;3.50;;
44110;SDS011;29774;52.664;5.074;2023-04-01T11:59:01;5.30;;;3.35;;
44110;SDS011;29774;52.664;5.074;2023-04-01T12:12:47;4.35;;;2.88;;
44110;SDS011;29774;52.664;5.074;2023-04-01T12:23:36;3.38;;;2.70;;
44110;SDS011;29774;52.664;5.074;2023-04-01T12:47:55;4.03;;;2.80;;
44110;SDS011;29774;52.664;5.074;2023-04-01T12:53:10;4.60;;;3.00;;
44110;SDS011;29774;52.664;5.074;2023-04-01T12:55:50;5.07;;;3.03;;
44110;SDS011;29774;52.664;5.074;2023-04-01T12:58:35;3.70;;;3.10;;
44110;SDS011;29774;52.664;5.074;2023-04-01T13:06:20;3.63;;;2.80;;
44110;SDS011;29774;52.664;5.074;2023-04-01T13:08:56;2.95;;;2.58;;
44110;SDS011;29774;52.664;5.074;2023-04-01T13:31:38;6.05;;;2.88;;
44110;SDS011;29774;52.664;5.074;2023-04-01T13:34:34;4.32;;;2.53;;
44110;SDS011;29774;52.664;5.074;2023-04-01T13:37:29;4.00;;;2.63;;
44110;SDS011;29774;52.664;5.074;2023-04-01T13:42:29;3.03;;;2.22;;
44110;SDS011;29774;52.664;5.074;2023-04-01T14:18:19;4.13;;;3.03;;
44110;SDS011;29774;52.664;5.074;2023-04-01T14:40:56;3.88;;;2.20;;
44110;SDS011;29774;52.664;5.074;2023-04-01T14:51:56;5.25;;;2.33;;
44110;SDS011;29774;52.664;5.074;2023-04-01T14:54:49;4.35;;;1.95;;
44110;SDS011;29774;52.664;5.074;2023-04-01T14:57:27;2.92;;;1.73;;
44110;SDS011;29774;52.664;5.074;2023-04-01T14:59:59;3.25;;;1.92;;
44110;SDS011;29774;52.664;5.074;2023-04-01T15:02:32;2.80;;;1.77;;
44110;SDS011;29774;52.664;5.074;2023-04-01T15:07:47;3.05;;;2.08;;
44110;SDS011;29774;52.664;5.074;2023-04-01T15:21:18;3.85;;;2.20;;
44110;SDS011;29774;52.664;5.074;2023-04-01T15:32:16;5.13;;;1.50;;
44110;SDS011;29774;52.664;5.074;2023-04-01T15:34:58;3.30;;;1.52;;
44110;SDS011;29774;52.664;5.074;2023-04-01T15:37:31;5.10;;;3.92;;
44110;SDS011;29774;52.664;5.074;2023-04-01T15:40:17;3.35;;;2.20;;
44110;SDS011;29774;52.664;5.074;2023-04-01T15:51:39;13.52;;;8.02;;
44110;SDS011;29774;52.664;5.074;2023-04-01T16:04:54;2.38;;;2.00;;
44110;SDS011;29774;52.664;5.074;2023-04-01T16:07:40;2.28;;;1.88;;
44110;SDS011;29774;52.664;5.074;2023-04-01T16:28:03;2.10;;;1.90;;
44110;SDS011;29774;52.664;5.074;2023-04-01T16:33:50;2.05;;;1.55;;
44110;SDS011;29774;52.664;5.074;2023-04-01T16:39:35;2.22;;;1.65;;
44110;SDS011;29774;52.664;5.074;2023-04-01T16:44:47;1.40;;;1.30;;
44110;SDS011;29774;52.664;5.074;2023-04-01T16:47:30;1.58;;;1.35;;
44110;SDS011;29774;52.664;5.074;2023-04-01T16:50:27;1.90;;;1.63;;
44110;SDS011;29774;52.664;5.074;2023-04-01T16:56:25;1.70;;;1.60;;
44110;SDS011;29774;52.664;5.074;2023-04-01T16:58:41;1.88;;;1.38;;
44110;SDS011;29774;52.664;5.074;2023-04-01T17:01:27;2.92;;;1.33;;
44110;SDS011;29774;52.664;5.074;2023-04-01T17:04:00;2.28;;;1.33;;
44110;SDS011;29774;52.664;5.074;2023-04-01T17:15:05;3.20;;;2.42;;
44110;SDS011;29774;52.664;5.074;2023-04-01T17:17:45;2.08;;;1.58;;
44110;SDS011;29774;52.664;5.074;2023-04-01T17:20:25;2.78;;;1.60;;
44110;SDS011;29774;52.664;5.074;2023-04-01T17:34:38;2.40;;;1.92;;
44110;SDS011;29774;52.664;5.074;2023-04-01T17:37:29;2.17;;;2.00;;
44110;SDS011;29774;52.664;5.074;2023-04-01T17:40:00;2.35;;;1.75;;
44110;SDS011;29774;52.664;5.074;2023-04-01T17:51:11;3.38;;;1.63;;
44110;SDS011;29774;52.664;5.074;2023-04-01T17:53:41;3.67;;;2.33;;
44110;SDS011;29774;52.664;5.074;2023-04-01T17:56:34;3.47;;;2.25;;
44110;SDS011;29774;52.664;5.074;2023-04-01T17:59:21;2.95;;;2.47;;
44110;SDS011;29774;52.664;5.074;2023-04-01T18:04:51;2.72;;;2.22;;
44110;SDS011;29774;52.664;5.074;2023-04-01T18:17:55;2.45;;;2.25;;
44110;SDS011;29774;52.664;5.074;2023-04-01T18:25:55;5.57;;;3.10;;
44110;SDS011;29774;52.664;5.074;2023-04-01T18:31:04;3.58;;;2.47;;
44110;SDS011;29774;52.664;5.074;2023-04-01T18:33:43;3.78;;;2.70;;
44110;SDS011;29774;52.664;5.074;2023-04-01T18:39:19;3.92;;;2.78;;
44110;SDS011;29774;52.664;5.074;2023-04-01T18:50:21;3.97;;;3.20;;
44110;SDS011;29774;52.664;5.074;2023-04-01T18:52:57;4.15;;;3.20;;
44110;SDS011;29774;52.664;5.074;2023-04-01T18:55:42;5.28;;;3.40;;
44110;SDS011;29774;52.664;5.074;2023-04-01T18:58:17;4.47;;;2.63;;
44110;SDS011;29774;52.664;5.074;2023-04-01T19:01:02;4.05;;;3.03;;
44110;SDS011;29774;52.664;5.074;2023-04-01T19:06:23;5.93;;;4.07;;
44110;SDS011;29774;52.664;5.074;2023-04-01T19:08:55;3.72;;;3.03;;
44110;SDS011;29774;52.664;5.074;2023-04-01T19:14:39;5.00;;;2.88;;
44110;SDS011;29774;52.664;5.074;2023-04-01T19:17:16;6.13;;;3.15;;
44110;SDS011;29774;52.664;5.074;2023-04-01T19:25:46;3.83;;;2.50;;
44110;SDS011;29774;52.664;5.074;2023-04-01T19:28:20;3.08;;;2.78;;
44110;SDS011;29774;52.664;5.074;2023-04-01T19:39:05;4.03;;;3.60;;
44110;SDS011;29774;52.664;5.074;2023-04-01T19:41:58;8.38;;;3.00;;
44110;SDS011;29774;52.664;5.074;2023-04-01T19:44:49;3.63;;;2.80;;
44110;SDS011;29774;52.664;5.074;2023-04-01T19:47:43;3.88;;;3.25;;
44110;SDS011;29774;52.664;5.074;2023-04-01T19:53:02;4.47;;;4.00;;
44110;SDS011;29774;52.664;5.074;2023-04-01T19:56:04;3.53;;;2.42;;
44110;SDS011;29774;52.664;5.074;2023-04-01T20:00:57;5.07;;;3.63;;
44110;SDS011;29774;52.664;5.074;2023-04-01T20:03:45;3.83;;;3.05;;
44110;SDS011;29774;52.664;5.074;2023-04-01T20:08:45;6.43;;;4.20;;
44110;SDS011;29774;52.664;5.074;2023-04-01T20:11:42;5.47;;;3.80;;
44110;SDS011;29774;52.664;5.074;2023-04-01T20:14:26;6.10;;;3.92;;
44110;SDS011;29774;52.664;5.074;2023-04-01T20:17:30;6.55;;;3.78;;
44110;SDS011;29774;52.664;5.074;2023-04-01T20:27:47;6.75;;;3.40;;
44110;SDS011;29774;52.664;5.074;2023-04-01T20:53:07;7.35;;;4.43;;
44110;SDS011;29774;52.664;5.074;2023-04-01T21:09:11;8.95;;;3.80;;
44110;SDS011;29774;52.664;5.074;2023-04-01T21:20:01;7.13;;;4.47;;
44110;SDS011;29774;52.664;5.074;2023-04-01T21:34:31;8.02;;;4.82;;
44110;SDS011;29774;52.664;5.074;2023-04-01T21:42:42;4.28;;;3.50;;
44110;SDS011;29774;52.664;5.074;2023-04-01T21:45:39;6.85;;;3.70;;
44110;SDS011;29774;52.664;5.074;2023-04-01T22:05:21;9.60;;;4.22;;
44110;SDS011;29774;52.664;5.074;2023-04-01T22:18:42;7.82;;;4.70;;
44110;SDS011;29774;52.664;5.074;2023-04-01T22:24:23;4.70;;;3.50;;
44110;SDS011;29774;52.664;5.074;2023-04-01T22:26:59;6.80;;;4.53;;
44110;SDS011;29774;52.664;5.074;2023-04-01T22:29:51;7.15;;;4.45;;
44110;SDS011;29774;52.664;5.074;2023-04-01T22:32:24;7.65;;;4.68;;
44110;SDS011;29774;52.664;5.074;2023-04-01T22:35:23;4.32;;;3.40;;
44110;SDS011;29774;52.664;5.074;2023-04-01T22:43:38;6.88;;;3.97;;
44110;SDS011;29774;52.664;5.074;2023-04-01T22:48:49;6.63;;;4.00;;
44110;SDS011;29774;52.664;5.074;2023-04-01T22:51:42;6.53;;;3.40;;
44110;SDS011;29774;52.664;5.074;2023-04-01T22:56:57;4.95;;;3.50;;
44110;SDS011;29774;52.664;5.074;2023-04-01T22:59:27;4.10;;;3.28;;
44110;SDS011;29774;52.664;5.074;2023-04-01T23:02:00;6.22;;;3.75;;
44110;SDS011;29774;52.664;5.074;2023-04-01T23:04:34;4.32;;;3.22;;
44110;SDS011;29774;52.664;5.074;2023-04-01T23:07:19;4.93;;;3.22;;
44110;SDS011;29774;52.664;5.074;2023-04-01T23:09:49;6.28;;;3.58;;
44110;SDS011;29774;52.664;5.074;2023-04-01T23:12:16;4.57;;;2.60;;
44110;SDS011;29774;52.664;5.074;2023-04-01T23:14:55;4.45;;;3.53;;
44110;SDS011;29774;52.664;5.074;2023-04-01T23:17:34;6.70;;;2.83;;
44110;SDS011;29774;52.664;5.074;2023-04-01T23:31:25;4.28;;;3.10;;
44110;SDS011;29774;52.664;5.074;2023-04-01T23:34:00;6.13;;;3.42;;
44110;SDS011;29774;52.664;5.074;2023-04-01T23:36:29;6.95;;;3.83;;
44110;SDS011;29774;52.664;5.074;2023-04-01T23:38:56;5.88;;;3.55;;
44110;SDS011;29774;52.664;5.074;2023-04-01T23:41:27;5.38;;;2.95;;
44110;SDS011;29774;52.664;5.074;2023-04-01T23:43:56;4.20;;;2.85;;
44110;SDS011;29774;52.664;5.074;2023-04-01T23:46:26;4.60;;;3.40;;
44110;SDS011;29774;52.664;5.074;2023-04-01T23:48:55;4.53;;;2.67;;
44110;SDS011;29774;52.664;5.074;2023-04-01T23:51:28;3.20;;;2.42;;
44110;SDS011;29774;52.664;5.074;2023-04-01T23:54:02;4.28;;;3.05;;
44110;SDS011;29774;52.664;5.074;2023-04-01T23:56:49;6.22;;;3.60;;
44110;SDS011;29774;52.664;5.074;2023-04-01T23:59:19;5.85;;;3.38;;
